Time;durP1;ratioP1;P1;durP2;ratioP2;P2;SDS_P1;SDS_P2;PMS_P1;PMS_P2;Temp;Humidity;BMP_temperature;BMP_pressure;BME280_temperature;BME280_humidity;BME280_pressure;Samples;Min_cycle;Max_cycle;Signal;HPM_P1;HPM_P2
2022/05/29 00:00:17;;;;;;;3.20;1.67;;;8.80;99.90;;;;;;5032529;28;20171;-74
2022/05/29 00:02:42;;;;;;;5.60;1.80;;;8.90;99.90;;;;;;5015693;28;20200;-74
2022/05/29 00:05:10;;;;;;;2.60;1.80;;;9.00;99.90;;;;;;5032343;28;20549;-75
2022/05/29 00:07:36;;;;;;;3.23;1.73;;;9.10;99.90;;;;;;5032444;28;20194;-74
2022/05/29 00:10:08;;;;;;;4.57;1.87;;;8.80;99.90;;;;;;5032258;28;20177;-75
2022/05/29 00:12:34;;;;;;;3.03;1.60;;;8.80;99.90;;;;;;5031893;28;20751;-75
2022/05/29 00:15:00;;;;;;;2.30;1.67;;;8.70;99.90;;;;;;5032493;28;20236;-74
2022/05/29 00:17:26;;;;;;;3.97;1.67;;;8.60;99.90;;;;;;5032210;28;20189;-74
2022/05/29 00:19:52;;;;;;;6.23;2.03;;;8.40;99.90;;;;;;5032171;28;20181;-75
2022/05/29 00:22:20;;;;;;;3.73;1.83;;;8.30;99.90;;;;;;5031943;28;20200;-75
2022/05/29 00:24:47;;;;;;;3.30;1.50;;;8.30;99.90;;;;;;5032067;28;20188;-75
2022/05/29 00:27:16;;;;;;;3.17;1.90;;;8.20;99.90;;;;;;5032953;28;20195;-74
2022/05/29 00:29:43;;;;;;;2.47;1.80;;;8.20;99.90;;;;;;5031732;28;20206;-75
2022/05/29 00:32:09;;;;;;;3.80;1.70;;;8.30;99.90;;;;;;5032844;28;20653;-75
2022/05/29 00:34:35;;;;;;;2.57;1.73;;;8.30;99.90;;;;;;5031894;28;20177;-74
2022/05/29 00:37:06;;;;;;;3.67;1.90;;;8.30;99.90;;;;;;5014790;28;20220;-75
2022/05/29 00:39:32;;;;;;;5.33;1.80;;;8.30;99.90;;;;;;5031664;28;20171;-75
2022/05/29 00:41:58;;;;;;;2.17;1.70;;;8.30;99.90;;;;;;5031412;28;20191;-75
2022/05/29 00:44:30;;;;;;;5.10;1.80;;;8.20;99.90;;;;;;5015437;28;20179;-75
2022/05/29 00:47:10;;;;;;;3.77;1.93;;;8.40;99.90;;;;;;5032859;28;20193;-75
2022/05/29 00:49:38;;;;;;;3.90;1.90;;;8.40;99.90;;;;;;5031516;28;20290;-75
2022/05/29 00:52:25;;;;;;;4.70;1.87;;;8.50;99.90;;;;;;5032390;28;20586;-75
2022/05/29 00:54:56;;;;;;;5.77;2.20;;;8.60;99.90;;;;;;4998418;28;20616;-75
2022/05/29 00:57:24;;;;;;;3.23;1.67;;;8.50;99.90;;;;;;5031549;28;20249;-75
2022/05/29 00:59:50;;;;;;;3.20;2.00;;;8.30;99.90;;;;;;5031526;28;20228;-75
2022/05/29 01:02:16;;;;;;;4.10;2.00;;;8.30;99.90;;;;;;5014727;28;20186;-75
2022/05/29 01:04:45;;;;;;;3.57;2.00;;;8.30;99.90;;;;;;5014707;28;20247;-75
2022/05/29 01:07:13;;;;;;;3.30;2.00;;;8.20;99.90;;;;;;5031367;28;20248;-74
2022/05/29 01:09:42;;;;;;;3.67;1.90;;;8.30;99.90;;;;;;5014950;28;20207;-75
2022/05/29 01:12:30;;;;;;;2.90;1.70;;;8.30;99.90;;;;;;5015017;28;20204;-75
2022/05/29 01:15:22;;;;;;;4.17;1.90;;;8.30;99.90;;;;;;5031157;28;20177;-75
2022/05/29 01:18:10;;;;;;;4.13;2.20;;;8.30;99.90;;;;;;5031085;28;20193;-75
2022/05/29 01:20:44;;;;;;;4.97;2.00;;;8.10;99.90;;;;;;5031024;28;20172;-75
2022/05/29 01:23:30;;;;;;;4.00;2.10;;;8.10;99.90;;;;;;5030906;28;20308;-75
2022/05/29 01:26:22;;;;;;;5.63;2.40;;;8.10;99.90;;;;;;5031094;28;20171;-75
2022/05/29 01:28:54;;;;;;;3.13;1.90;;;8.10;99.90;;;;;;5030918;28;20192;-75
2022/05/29 01:31:56;;;;;;;2.50;2.00;;;8.00;99.90;;;;;;5034289;28;20644;-77
2022/05/29 01:34:36;;;;;;;3.83;2.00;;;7.90;99.90;;;;;;5031306;28;20176;-75
2022/05/29 01:37:25;;;;;;;3.10;1.87;;;7.90;99.90;;;;;;5030969;28;20228;-75
2022/05/29 01:40:12;;;;;;;2.83;1.90;;;7.90;99.90;;;;;;5030956;28;20177;-75
2022/05/29 01:42:45;;;;;;;3.40;2.17;;;7.70;99.90;;;;;;5030635;28;20554;-75
2022/05/29 01:45:33;;;;;;;3.13;2.00;;;7.50;99.90;;;;;;5030971;28;20266;-75
2022/05/29 01:48:10;;;;;;;4.97;1.77;;;7.40;99.90;;;;;;5030794;28;20228;-75
2022/05/29 01:50:59;;;;;;;3.23;1.90;;;7.40;99.90;;;;;;5031065;28;20172;-76
2022/05/29 01:53:35;;;;;;;3.67;2.03;;;7.30;99.90;;;;;;5030654;28;20628;-75
2022/05/29 01:56:12;;;;;;;4.73;2.17;;;7.40;99.90;;;;;;5030913;28;20185;-75
2022/05/29 01:58:42;;;;;;;4.63;2.10;;;7.30;99.90;;;;;;5031996;28;20174;-76
2022/05/29 02:01:11;;;;;;;2.10;1.90;;;7.20;99.90;;;;;;5032195;28;20319;-75
2022/05/29 02:03:42;;;;;;;2.70;1.67;;;7.30;99.90;;;;;;5014493;28;20202;-75
2022/05/29 02:06:16;;;;;;;3.50;1.90;;;7.20;99.90;;;;;;5034498;28;20277;-75
2022/05/29 02:09:08;;;;;;;4.07;2.30;;;7.20;99.90;;;;;;5035426;28;20206;-75
2022/05/29 02:11:33;;;;;;;3.53;1.73;;;7.20;99.90;;;;;;5038427;28;20244;-75
2022/05/29 02:14:02;;;;;;;4.23;2.10;;;7.00;99.90;;;;;;5018165;28;20183;-76
2022/05/29 02:16:44;;;;;;;3.17;2.00;;;7.00;99.90;;;;;;5034425;28;20191;-76
2022/05/29 02:19:33;;;;;;;3.83;1.90;;;7.10;99.90;;;;;;5034502;28;20185;-76
2022/05/29 02:22:21;;;;;;;4.37;2.10;;;7.10;99.90;;;;;;5034307;28;20170;-76
2022/05/29 02:24:50;;;;;;;3.17;1.70;;;7.30;99.90;;;;;;5034376;28;20198;-76
2022/05/29 02:27:37;;;;;;;2.23;1.80;;;7.20;99.90;;;;;;5034225;28;20640;-76
2022/05/29 02:30:05;;;;;;;5.73;2.00;;;7.20;99.90;;;;;;5035266;28;20197;-76
2022/05/29 02:32:54;;;;;;;6.13;2.13;;;7.30;99.90;;;;;;5001422;28;20266;-76
2022/05/29 02:35:27;;;;;;;2.90;1.93;;;7.40;99.90;;;;;;5034074;28;20167;-76
2022/05/29 02:37:58;;;;;;;2.10;1.77;;;7.30;99.90;;;;;;5033880;28;20273;-76
2022/05/29 02:40:51;;;;;;;5.70;2.00;;;7.20;99.90;;;;;;5033895;28;20170;-76
2022/05/29 02:43:16;;;;;;;2.07;1.87;;;7.20;99.90;;;;;;5033919;28;20261;-76
2022/05/29 02:45:50;;;;;;;4.63;1.70;;;7.10;99.90;;;;;;5033917;28;20257;-76
2022/05/29 02:48:24;;;;;;;4.77;2.30;;;7.00;99.90;;;;;;5034051;28;20206;-76
2022/05/29 02:50:59;;;;;;;4.53;2.47;;;6.80;99.90;;;;;;5033872;28;20184;-76
2022/05/29 02:53:25;;;;;;;3.63;1.80;;;6.70;99.90;;;;;;5033682;28;20192;-76
2022/05/29 02:55:51;;;;;;;3.27;2.00;;;6.60;99.90;;;;;;5033848;28;20668;-75
2022/05/29 02:58:24;;;;;;;5.13;1.97;;;6.60;99.90;;;;;;5033849;28;20280;-75
2022/05/29 03:01:08;;;;;;;2.67;2.10;;;6.50;99.90;;;;;;5017480;28;20235;-75
2022/05/29 03:03:43;;;;;;;3.50;1.93;;;6.40;99.90;;;;;;5033705;28;20180;-76
2022/05/29 03:06:42;;;;;;;2.73;1.70;;;6.30;99.90;;;;;;5018123;28;20276;-75
2022/05/29 03:09:54;;;;;;;3.03;1.97;;;6.40;99.90;;;;;;5033671;28;20208;-76
2022/05/29 03:12:23;;;;;;;2.90;2.00;;;6.40;99.90;;;;;;5034707;28;20173;-76
2022/05/29 03:15:30;;;;;;;2.83;1.87;;;6.50;99.90;;;;;;5033528;28;20258;-76
2022/05/29 03:18:23;;;;;;;3.23;1.87;;;6.60;99.90;;;;;;4972787;28;20257;-75
2022/05/29 03:21:09;;;;;;;3.53;2.07;;;6.70;99.90;;;;;;4973437;28;20246;-75
2022/05/29 03:24:01;;;;;;;3.70;1.60;;;6.60;99.90;;;;;;5032519;28;20191;-75
2022/05/29 03:26:52;;;;;;;3.60;1.90;;;6.40;99.90;;;;;;5033299;28;20671;-75
2022/05/29 03:29:25;;;;;;;3.00;1.90;;;6.40;99.90;;;;;;5034234;28;20198;-76
2022/05/29 03:31:51;;;;;;;2.37;1.77;;;6.40;99.90;;;;;;5017313;28;20186;-76
2022/05/29 03:34:16;;;;;;;2.87;1.90;;;6.40;99.90;;;;;;5016703;28;20212;-75
2022/05/29 03:36:50;;;;;;;5.00;2.13;;;6.30;99.90;;;;;;5025447;22;20301;-75
2022/05/29 03:39:17;;;;;;;3.47;1.80;;;6.30;99.90;;;;;;5053126;28;20188;-75
2022/05/29 03:41:49;;;;;;;3.40;1.90;;;6.40;99.90;;;;;;5036399;28;20180;-75
2022/05/29 03:44:17;;;;;;;2.50;1.60;;;6.40;99.90;;;;;;5053005;28;20180;-75
2022/05/29 03:46:44;;;;;;;4.77;2.03;;;6.40;99.90;;;;;;5052829;28;20182;-75
2022/05/29 03:49:17;;;;;;;3.37;1.83;;;6.20;99.90;;;;;;5052519;28;20205;-75
2022/05/29 03:51:43;;;;;;;2.97;1.80;;;6.20;99.90;;;;;;5052850;28;20194;-75
2022/05/29 03:54:10;;;;;;;3.17;2.00;;;6.10;99.90;;;;;;5052657;28;20170;-75
2022/05/29 03:56:36;;;;;;;3.63;1.77;;;6.30;99.90;;;;;;5052551;28;20182;-75
2022/05/29 03:59:03;;;;;;;3.03;1.87;;;6.20;99.90;;;;;;5052384;28;20184;-75
2022/05/29 04:01:29;;;;;;;3.60;1.80;;;6.30;99.90;;;;;;5052649;28;20179;-75
2022/05/29 04:03:55;;;;;;;3.27;1.80;;;6.30;99.90;;;;;;5052287;28;20251;-75
2022/05/29 04:06:23;;;;;;;3.73;1.87;;;6.10;99.90;;;;;;5052563;28;20187;-75
2022/05/29 04:14:18;;;;;;;5.70;2.10;;;6.30;99.90;;;;;;5052683;28;20222;-75
2022/05/29 04:16:43;;;;;;;4.50;1.90;;;6.30;99.90;;;;;;5053368;28;20173;-75
2022/05/29 04:19:10;;;;;;;3.20;1.90;;;6.30;99.90;;;;;;5019125;28;20195;-75
2022/05/29 04:21:36;;;;;;;3.63;1.77;;;6.30;99.90;;;;;;5035550;28;20598;-75
2022/05/29 04:24:02;;;;;;;2.70;1.70;;;6.20;99.90;;;;;;5035407;28;20210;-75
2022/05/29 04:26:28;;;;;;;2.10;1.80;;;6.10;99.90;;;;;;5035537;28;20188;-75
2022/05/29 04:28:53;;;;;;;3.93;1.80;;;6.20;99.90;;;;;;5017821;28;20221;-75
2022/05/29 04:31:19;;;;;;;4.40;2.00;;;6.30;99.90;;;;;;5051887;28;20170;-75
2022/05/29 04:33:45;;;;;;;2.63;2.27;;;6.30;99.90;;;;;;5035008;28;20188;-75
2022/05/29 04:36:11;;;;;;;3.20;1.93;;;6.30;99.90;;;;;;5052018;28;20175;-75
2022/05/29 04:38:37;;;;;;;3.07;2.30;;;6.30;99.90;;;;;;5051630;28;20310;-75
2022/05/29 04:41:07;;;;;;;4.60;2.27;;;6.30;99.90;;;;;;5051730;28;20631;-75
2022/05/29 04:43:33;;;;;;;3.50;2.00;;;6.40;99.90;;;;;;5051707;28;20714;-75
2022/05/29 04:45:59;;;;;;;3.37;2.10;;;6.40;99.90;;;;;;5019050;28;20233;-75
2022/05/29 04:48:25;;;;;;;5.13;2.17;;;6.40;99.90;;;;;;5051464;28;20205;-75
2022/05/29 04:51:02;;;;;;;5.10;2.30;;;6.50;99.90;;;;;;5051598;28;20636;-75
2022/05/29 04:53:30;;;;;;;3.23;2.00;;;6.50;99.90;;;;;;5051300;28;20286;-75
2022/05/29 04:55:57;;;;;;;4.17;2.23;;;6.40;99.90;;;;;;5034737;28;20177;-75
2022/05/29 04:58:25;;;;;;;4.50;2.40;;;6.50;99.90;;;;;;5051379;28;20249;-75
2022/05/29 05:01:04;;;;;;;3.47;2.40;;;6.60;99.90;;;;;;5035029;28;20176;-75
2022/05/29 05:03:31;;;;;;;5.60;2.20;;;6.70;99.90;;;;;;5051292;28;20328;-76
2022/05/29 05:05:57;;;;;;;2.80;2.30;;;6.70;99.90;;;;;;5051355;28;20546;-76
2022/05/29 05:08:23;;;;;;;4.13;2.53;;;6.70;99.90;;;;;;5051003;28;20200;-76
2022/05/29 05:10:49;;;;;;;5.20;2.67;;;6.60;99.90;;;;;;5034651;28;20209;-76
2022/05/29 05:13:15;;;;;;;3.53;2.20;;;6.70;99.90;;;;;;5051021;28;20286;-76
2022/05/29 05:15:40;;;;;;;2.80;2.27;;;6.70;99.90;;;;;;5051388;28;20204;-75
2022/05/29 05:18:06;;;;;;;5.33;2.57;;;6.80;99.90;;;;;;5034825;28;20246;-76
2022/05/29 05:20:33;;;;;;;5.47;2.57;;;6.90;99.90;;;;;;5034560;28;20177;-76
2022/05/29 05:22:59;;;;;;;5.37;2.57;;;7.00;99.90;;;;;;5052035;28;20175;-76
2022/05/29 05:25:25;;;;;;;4.40;2.20;;;7.00;99.90;;;;;;5051180;28;20177;-76
2022/05/29 05:27:51;;;;;;;4.53;2.37;;;7.00;99.90;;;;;;5034491;28;20261;-76
2022/05/29 05:30:17;;;;;;;5.43;2.40;;;7.10;99.90;;;;;;5051184;28;20177;-76
2022/05/29 05:32:43;;;;;;;4.57;2.60;;;7.20;99.90;;;;;;5017727;28;20230;-76
2022/05/29 05:35:09;;;;;;;6.07;2.73;;;7.30;99.90;;;;;;5018032;28;20180;-75
2022/05/29 05:37:36;;;;;;;5.87;2.80;;;7.30;99.90;;;;;;5034259;28;20630;-76
2022/05/29 05:40:10;;;;;;;5.40;2.60;;;7.40;99.90;;;;;;5034115;28;20531;-76
2022/05/29 05:42:36;;;;;;;5.10;2.40;;;7.40;99.90;;;;;;5034315;28;20525;-76
2022/05/29 05:45:04;;;;;;;5.33;2.70;;;7.60;99.90;;;;;;5034374;28;20185;-76
2022/05/29 05:47:29;;;;;;;4.13;2.20;;;7.60;99.90;;;;;;5050841;28;20189;-76
2022/05/29 05:49:55;;;;;;;6.47;2.30;;;7.60;99.90;;;;;;5034018;28;20347;-76
2022/05/29 05:52:20;;;;;;;4.67;2.40;;;7.70;99.90;;;;;;5017601;28;20645;-76
2022/05/29 05:54:46;;;;;;;5.67;2.27;;;7.80;99.90;;;;;;5034678;28;20173;-75
2022/05/29 05:57:12;;;;;;;5.10;2.50;;;7.90;99.90;;;;;;5018016;28;20702;-76
2022/05/29 05:59:40;;;;;;;4.87;2.27;;;8.00;99.90;;;;;;5034234;28;20196;-76
2022/05/29 06:02:11;;;;;;;7.80;2.50;;;8.00;99.90;;;;;;5033731;28;20181;-76
2022/05/29 06:04:39;;;;;;;2.30;2.03;;;8.10;99.90;;;;;;5050650;28;20169;-77
2022/05/29 06:07:05;;;;;;;4.13;2.10;;;8.20;99.90;;;;;;5050707;28;20193;-77
2022/05/29 06:09:31;;;;;;;5.97;2.30;;;8.30;99.90;;;;;;5050436;28;20201;-77
2022/05/29 06:11:57;;;;;;;5.30;2.37;;;8.40;99.90;;;;;;5033853;28;20200;-77
2022/05/29 06:14:22;;;;;;;5.37;2.43;;;8.50;99.90;;;;;;5050633;28;20200;-78
2022/05/29 06:16:48;;;;;;;4.67;2.30;;;8.50;99.90;;;;;;5050580;28;20170;-77
2022/05/29 06:19:14;;;;;;;4.97;2.97;;;8.60;99.90;;;;;;5034083;28;20271;-76
2022/05/29 06:21:39;;;;;;;3.33;2.30;;;8.60;99.90;;;;;;5033972;28;20178;-76
2022/05/29 06:24:06;;;;;;;5.60;2.30;;;8.70;99.90;;;;;;5017504;28;20191;-76
2022/05/29 06:26:32;;;;;;;5.67;2.67;;;8.80;99.90;;;;;;5033805;28;20182;-77
2022/05/29 06:28:57;;;;;;;6.13;2.50;;;9.20;99.90;;;;;;5050364;28;20251;-76
2022/05/29 06:31:24;;;;;;;8.03;2.23;;;9.40;99.90;;;;;;5017401;28;20198;-76
2022/05/29 06:33:50;;;;;;;5.33;2.20;;;9.30;99.90;;;;;;5033747;28;20172;-76
2022/05/29 06:36:18;;;;;;;6.30;2.47;;;9.40;99.90;;;;;;5050405;28;20171;-76
2022/05/29 06:38:45;;;;;;;5.77;2.20;;;9.50;99.90;;;;;;5033307;28;20309;-76
2022/05/29 06:41:13;;;;;;;8.50;4.33;;;9.40;99.90;;;;;;5051406;28;20176;-76
2022/05/29 06:43:39;;;;;;;1999.90;540.97;;;10.00;99.90;;;;;;5017083;28;20214;-76
2022/05/29 06:46:07;;;;;;;47.57;17.90;;;10.50;99.90;;;;;;5049959;28;20232;-76
2022/05/29 06:48:34;;;;;;;13.20;5.07;;;11.10;99.90;;;;;;5050069;28;20716;-76
2022/05/29 06:51:13;;;;;;;47.63;14.90;;;11.30;99.90;;;;;;5034053;28;20598;-76
2022/05/29 06:53:40;;;;;;;25.43;9.53;;;11.20;99.90;;;;;;5037894;28;20215;-75
2022/05/29 06:56:07;;;;;;;11.03;4.40;;;11.50;99.90;;;;;;5053626;28;20173;-76
2022/05/29 06:58:32;;;;;;;3.67;1.93;;;11.60;99.90;;;;;;5037085;28;20206;-75
2022/05/29 07:06:59;;;;;;;6.40;2.63;;;11.90;99.90;;;;;;5054950;28;20172;-75
2022/05/29 07:09:26;;;;;;;20.27;9.40;;;11.60;99.90;;;;;;5025328;28;20212;-75
2022/05/29 07:11:57;;;;;;;14.03;7.07;;;11.40;99.90;;;;;;5053256;28;20174;-76
2022/05/29 07:14:22;;;;;;;7.47;3.87;;;11.40;99.90;;;;;;5053506;28;20604;-76
2022/05/29 07:16:48;;;;;;;10.63;4.83;;;11.60;99.90;;;;;;5036755;28;20636;-75
2022/05/29 07:19:15;;;;;;;8.27;4.03;;;12.70;99.90;;;;;;5020318;28;20181;-76
2022/05/29 07:21:41;;;;;;;6.53;3.53;;;13.20;99.90;;;;;;5036656;28;20178;-76
2022/05/29 07:24:09;;;;;;;10.23;3.77;;;13.60;99.90;;;;;;5053032;28;20650;-76
2022/05/29 07:26:36;;;;;;;1.63;1.20;;;14.30;99.90;;;;;;5054228;28;20170;-76
2022/05/29 07:29:02;;;;;;;3.93;1.63;;;14.20;99.90;;;;;;5054242;28;20193;-76
2022/05/29 07:31:27;;;;;;;3.87;1.57;;;13.70;99.90;;;;;;5036348;28;20239;-76
2022/05/29 07:33:53;;;;;;;2.67;1.40;;;13.60;99.90;;;;;;5052861;28;20177;-76
2022/05/29 07:36:19;;;;;;;5.17;2.17;;;13.50;99.90;;;;;;5036289;28;20192;-76
2022/05/29 07:38:45;;;;;;;3.50;1.50;;;13.50;99.90;;;;;;5019753;28;20630;-76
2022/05/29 07:43:56;;;;;;;6.27;3.30;;;13.70;99.90;;;;;;5053293;28;20255;-77
2022/05/29 07:46:22;;;;;;;3.57;2.03;;;13.70;99.90;;;;;;5054384;28;20233;-76
2022/05/29 07:48:48;;;;;;;2.97;1.40;;;13.40;99.90;;;;;;5054067;28;20192;-76
2022/05/29 07:51:14;;;;;;;4.20;1.50;;;13.50;99.90;;;;;;5052466;28;20169;-76
2022/05/29 07:53:39;;;;;;;1.87;1.33;;;13.50;99.90;;;;;;5052127;28;20197;-76
2022/05/29 07:56:06;;;;;;;3.30;1.57;;;13.40;99.90;;;;;;5035642;28;20189;-76
2022/05/29 07:58:38;;;;;;;3.03;1.50;;;13.50;99.90;;;;;;5053676;28;20229;-76
2022/05/29 08:01:04;;;;;;;3.50;1.50;;;13.50;99.90;;;;;;5036536;28;20182;-76
2022/05/29 08:03:29;;;;;;;4.20;1.40;;;13.80;99.90;;;;;;5052430;28;20188;-76
2022/05/29 08:05:56;;;;;;;2.23;1.57;;;14.00;99.90;;;;;;5036020;28;20185;-76
2022/05/29 08:08:22;;;;;;;1.53;1.20;;;13.90;99.90;;;;;;5052485;28;20210;-76
2022/05/29 08:10:48;;;;;;;1.73;1.10;;;13.90;99.90;;;;;;5052544;28;20192;-76
2022/05/29 08:13:14;;;;;;;1.80;1.20;;;13.70;99.90;;;;;;5035772;28;20190;-76
2022/05/29 08:15:40;;;;;;;2.20;1.50;;;13.50;99.90;;;;;;5052527;28;20170;-76
2022/05/29 08:18:07;;;;;;;3.10;1.37;;;13.50;99.90;;;;;;5031859;28;20646;-76
2022/05/29 08:20:36;;;;;;;2.47;1.30;;;13.90;99.90;;;;;;5030464;28;20182;-76
2022/05/29 08:23:03;;;;;;;3.23;1.33;;;13.90;99.90;;;;;;5035967;28;20177;-76
2022/05/29 08:30:56;;;;;;;3.27;1.33;;;13.30;99.90;;;;;;5038442;28;20192;-76
2022/05/29 08:33:24;;;;;;;3.13;1.40;;;13.10;99.90;;;;;;5051678;28;20174;-76
2022/05/29 08:36:02;;;;;;;2.40;1.40;;;13.50;99.90;;;;;;5044108;28;20220;-76
2022/05/29 08:38:29;;;;;;;2.90;1.30;;;13.60;99.90;;;;;;5032122;28;20212;-76
2022/05/29 08:41:02;;;;;;;2.77;1.50;;;14.20;99.90;;;;;;5015622;28;20258;-76
2022/05/29 08:44:01;;;;;;;1.63;1.10;;;14.70;99.90;;;;;;5016109;28;20198;-76
2022/05/29 08:46:34;;;;;;;3.40;1.17;;;15.10;99.90;;;;;;5033134;28;20174;-76
2022/05/29 08:49:00;;;;;;;1.77;1.10;;;15.30;99.90;;;;;;5031989;28;20198;-76
2022/05/29 08:51:47;;;;;;;1.70;1.27;;;15.00;99.90;;;;;;5048876;28;20185;-76
2022/05/29 08:54:52;;;;;;;3.03;1.30;;;14.20;99.90;;;;;;5051667;28;20217;-76
2022/05/29 08:57:48;;;;;;;2.50;1.27;;;14.00;99.90;;;;;;5051453;28;20209;-76
2022/05/29 09:00:45;;;;;;;2.47;1.20;;;14.20;99.90;;;;;;5052826;28;20179;-76
2022/05/29 09:03:42;;;;;;;2.23;1.20;;;14.50;99.90;;;;;;5052048;28;20181;-76
2022/05/29 09:06:16;;;;;;;1.50;1.10;;;14.90;99.90;;;;;;5052521;28;20166;-81
2022/05/29 09:08:52;;;;;;;3.10;1.23;;;14.90;99.90;;;;;;5030271;28;20211;-76
2022/05/29 09:11:27;;;;;;;1.87;1.13;;;14.90;99.90;;;;;;5051569;28;20173;-76
2022/05/29 09:14:16;;;;;;;2.43;1.40;;;14.70;99.90;;;;;;5051394;28;20173;-76
2022/05/29 09:16:49;;;;;;;2.43;1.60;;;14.80;99.90;;;;;;5051082;28;20197;-78
2022/05/29 09:19:33;;;;;;;3.23;1.30;;;14.80;99.90;;;;;;5051055;28;20196;-77
2022/05/29 09:22:17;;;;;;;3.03;1.37;;;14.70;99.90;;;;;;5050491;28;20181;-77
2022/05/29 09:25:00;;;;;;;2.17;1.13;;;14.40;99.90;;;;;;5050896;28;20283;-77
2022/05/29 09:27:27;;;;;;;2.23;1.70;;;14.10;99.90;;;;;;5051094;28;20200;-77
2022/05/29 09:29:53;;;;;;;1.93;1.10;;;13.90;99.90;;;;;;5050947;28;20205;-77
2022/05/29 09:32:26;;;;;;;2.63;1.30;;;14.20;99.90;;;;;;5051018;28;20304;-77
2022/05/29 09:35:11;;;;;;;2.07;1.53;;;14.40;99.90;;;;;;5034402;28;20264;-77
2022/05/29 09:37:51;;;;;;;3.10;1.50;;;14.50;99.90;;;;;;5074299;22;20229;-76
2022/05/29 09:40:26;;;;;;;3.57;1.53;;;15.00;99.90;;;;;;5050902;28;20549;-77
2022/05/29 09:42:54;;;;;;;1.97;1.00;;;15.40;99.90;;;;;;5051889;28;20248;-76
2022/05/29 09:45:32;;;;;;;2.60;1.40;;;15.30;99.90;;;;;;5034510;28;20177;-75
2022/05/29 09:50:56;;;;;;;2.27;1.30;;;14.90;99.90;;;;;;5051312;28;20242;-76
2022/05/29 09:53:27;;;;;;;2.03;1.30;;;15.10;99.90;;;;;;5050751;28;20173;-76
2022/05/29 09:56:01;;;;;;;3.47;1.20;;;15.40;99.90;;;;;;5050858;28;20181;-76
2022/05/29 09:58:31;;;;;;;3.00;1.20;;;16.00;99.90;;;;;;5052032;28;20261;-76
2022/05/29 10:01:03;;;;;;;2.93;1.20;;;16.20;99.90;;;;;;5051464;28;20181;-75
2022/05/29 10:03:37;;;;;;;2.93;1.20;;;16.30;99.90;;;;;;5034489;28;20563;-76
2022/05/29 10:06:21;;;;;;;1.30;1.10;;;16.10;99.60;;;;;;5052514;28;20180;-76
2022/05/29 10:08:48;;;;;;;2.57;1.60;;;16.10;99.90;;;;;;5051715;28;20686;-75
2022/05/29 10:11:15;;;;;;;2.70;1.30;;;16.20;99.90;;;;;;5034860;28;20193;-75
2022/05/29 10:13:42;;;;;;;3.37;1.30;;;16.30;99.90;;;;;;5034820;28;20551;-76
2022/05/29 10:16:10;;;;;;;1.97;1.20;;;16.50;99.90;;;;;;5034446;28;20177;-76
2022/05/29 10:18:41;;;;;;;1.60;1.30;;;16.60;99.90;;;;;;5034150;28;20667;-75
2022/05/29 10:21:23;;;;;;;2.93;1.33;;;16.70;99.90;;;;;;5050608;28;20174;-75
2022/05/29 10:23:58;;;;;;;2.13;1.17;;;16.30;98.30;;;;;;5033906;28;20193;-75
2022/05/29 10:26:32;;;;;;;2.73;1.30;;;16.20;99.90;;;;;;5050554;28;20184;-74
2022/05/29 10:28:59;;;;;;;3.60;1.47;;;16.30;99.90;;;;;;5053999;28;20703;-74
2022/05/29 10:31:30;;;;;;;1.43;1.13;;;17.00;99.90;;;;;;5054042;28;20169;-75
2022/05/29 10:34:04;;;;;;;3.03;1.40;;;17.40;95.90;;;;;;5054469;28;20186;-74
2022/05/29 10:36:30;;;;;;;1.83;1.33;;;17.20;96.40;;;;;;5054119;28;20181;-74
2022/05/29 10:39:23;;;;;;;3.33;1.00;;;17.10;99.40;;;;;;5037267;28;20221;-75
2022/05/29 10:41:51;;;;;;;2.70;1.40;;;17.30;99.90;;;;;;5038807;28;20355;-75
2022/05/29 10:44:38;;;;;;;2.73;1.23;;;17.80;99.40;;;;;;5037286;28;20236;-75
2022/05/29 10:47:10;;;;;;;3.53;1.10;;;17.60;96.00;;;;;;5053912;28;20193;-75
2022/05/29 10:49:44;;;;;;;2.77;1.20;;;17.20;99.90;;;;;;5053995;28;20204;-76
2022/05/29 10:52:38;;;;;;;1.90;1.23;;;17.20;99.90;;;;;;5053519;28;20184;-76
2022/05/29 10:55:21;;;;;;;2.80;1.30;;;17.20;92.80;;;;;;5054255;28;20168;-76
2022/05/29 10:58:18;;;;;;;1.73;1.23;;;17.60;95.20;;;;;;5054021;28;20189;-76
2022/05/29 11:03:17;;;;;;;2.37;1.13;;;18.00;94.50;;;;;;5053693;28;20223;-76
2022/05/29 11:04:07;;;;;;;2.03;1.10;;;18.00;91.60;;;;;;5054582;28;20552;-76
2022/05/29 11:07:05;;;;;;;1.70;1.10;;;17.60;93.30;;;;;;5053473;28;20181;-76
2022/05/29 11:09:57;;;;;;;3.23;1.30;;;17.40;93.10;;;;;;5053451;28;20212;-76
2022/05/29 11:12:37;;;;;;;2.80;1.50;;;17.10;94.60;;;;;;5053211;28;20177;-76
2022/05/29 11:15:13;;;;;;;2.47;1.20;;;16.90;94.60;;;;;;5053248;28;20235;-76
2022/05/29 11:17:45;;;;;;;1.70;1.00;;;16.70;94.10;;;;;;5053345;28;20289;-76
2022/05/29 11:20:20;;;;;;;1.57;1.00;;;16.60;93.20;;;;;;5053090;28;20226;-76
2022/05/29 11:23:06;;;;;;;2.03;1.10;;;16.40;93.50;;;;;;5052650;28;20247;-76
2022/05/29 11:25:58;;;;;;;2.37;1.17;;;16.30;94.00;;;;;;5054295;28;20165;-76
2022/05/29 11:28:35;;;;;;;2.53;1.20;;;16.40;93.50;;;;;;5053096;28;20211;-76
2022/05/29 11:31:26;;;;;;;2.43;1.10;;;16.40;94.30;;;;;;5053135;28;20176;-76
2022/05/29 11:34:12;;;;;;;2.00;1.00;;;16.40;94.20;;;;;;5053998;28;20166;-76
2022/05/29 11:36:59;;;;;;;2.00;1.10;;;16.50;94.60;;;;;;5052864;28;20248;-76
2022/05/29 11:39:38;;;;;;;1.43;1.10;;;16.70;91.80;;;;;;5052505;28;20177;-76
2022/05/29 11:42:16;;;;;;;1.80;1.10;;;17.30;92.40;;;;;;5035897;28;20588;-76
2022/05/29 11:44:54;;;;;;;2.40;1.17;;;18.00;90.80;;;;;;5052844;28;20257;-76
2022/05/29 11:51:16;;;;;;;1.07;0.97;;;18.90;85.60;;;;;;5053940;28;20189;-76
2022/05/29 11:54:04;;;;;;;1.47;1.00;;;19.70;84.20;;;;;;5053639;28;20248;-76
2022/05/29 11:56:49;;;;;;;1.90;1.03;;;20.00;82.50;;;;;;5053733;28;20180;-76
2022/05/29 11:59:32;;;;;;;1.20;1.10;;;19.60;81.10;;;;;;5053668;28;20201;-76
2022/05/29 12:02:07;;;;;;;2.77;1.13;;;19.60;81.10;;;;;;5037123;28;20656;-76
2022/05/29 12:04:43;;;;;;;2.97;1.00;;;19.40;78.00;;;;;;5052405;28;20173;-77
2022/05/29 12:07:22;;;;;;;1.47;1.00;;;19.60;79.00;;;;;;5053386;28;20636;-76
2022/05/29 12:09:56;;;;;;;2.07;1.00;;;19.90;78.40;;;;;;5053672;28;20205;-76
2022/05/29 12:12:32;;;;;;;2.10;1.00;;;19.80;74.20;;;;;;5052200;28;20264;-76
2022/05/29 12:15:07;;;;;;;1.67;0.90;;;19.70;71.10;;;;;;5052455;28;20219;-76
2022/05/29 12:17:44;;;;;;;2.40;1.00;;;19.80;78.10;;;;;;5052097;28;20215;-76
2022/05/29 12:20:27;;;;;;;0.80;0.80;;;19.30;69.70;;;;;;5052463;28;20234;-77
2022/05/29 12:23:01;;;;;;;1.63;0.90;;;19.20;72.90;;;;;;5051945;28;20663;-77
2022/05/29 12:25:42;;;;;;;0.90;0.80;;;19.00;70.10;;;;;;5051944;28;20177;-77
2022/05/29 12:28:35;;;;;;;1.13;1.00;;;19.20;74.50;;;;;;5051728;28;20201;-77
2022/05/29 12:31:01;;;;;;;3.73;1.00;;;19.20;72.90;;;;;;5026130;28;20189;-76
2022/05/29 12:33:27;;;;;;;1.40;0.93;;;19.00;76.10;;;;;;5035176;28;20182;-76
2022/05/29 12:35:59;;;;;;;1.57;1.00;;;18.80;76.20;;;;;;5035377;28;20185;-76
2022/05/29 12:38:53;;;;;;;3.03;0.87;;;18.60;82.40;;;;;;5051178;28;20290;-76
2022/05/29 12:41:24;;;;;;;1.43;1.03;;;18.60;83.00;;;;;;4982373;28;20217;-77
2022/05/29 12:43:52;;;;;;;2.13;1.10;;;18.50;81.30;;;;;;5051565;28;20173;-77
2022/05/29 12:46:40;;;;;;;2.20;0.93;;;18.90;82.80;;;;;;5052897;28;20197;-77
2022/05/29 12:49:28;;;;;;;2.03;1.00;;;19.10;84.40;;;;;;5051100;28;20278;-77
2022/05/29 12:52:08;;;;;;;1.53;1.03;;;19.30;79.30;;;;;;5052477;28;20166;-76
2022/05/29 12:54:53;;;;;;;1.07;0.97;;;19.30;77.20;;;;;;5052806;28;20666;-76
2022/05/29 12:57:45;;;;;;;1.13;0.80;;;19.90;82.10;;;;;;5051577;28;20660;-76
2022/05/29 13:00:25;;;;;;;1.70;0.97;;;19.90;75.50;;;;;;5051297;28;20174;-77
2022/05/29 13:03:25;;;;;;;1.23;1.03;;;19.90;73.40;;;;;;5051024;28;20193;-76
2022/05/29 13:06:28;;;;;;;1.13;0.90;;;19.60;71.40;;;;;;5051345;28;20181;-76
2022/05/29 13:09:13;;;;;;;1.00;0.90;;;20.10;71.50;;;;;;5052427;28;20197;-76
2022/05/29 13:11:46;;;;;;;1.17;0.90;;;20.00;67.60;;;;;;5051187;28;20178;-76
2022/05/29 13:14:16;;;;;;;1.33;0.90;;;19.80;69.90;;;;;;5051376;28;20170;-76
2022/05/29 13:16:43;;;;;;;2.20;0.80;;;19.80;72.20;;;;;;5051533;28;20241;-76
2022/05/29 13:19:17;;;;;;;1.08;0.95;;;20.00;73.20;;;;;;5034408;28;20206;-76
2022/05/29 13:21:57;;;;;;;1.42;0.90;;;20.40;70.00;;;;;;5051049;28;20177;-76
2022/05/29 13:24:26;;;;;;;0.90;0.80;;;20.00;66.00;;;;;;5051274;28;20177;-76
2022/05/29 13:27:12;;;;;;;1.13;0.90;;;19.70;66.90;;;;;;5034602;28;20213;-76
2022/05/29 13:29:55;;;;;;;1.33;0.90;;;19.30;68.90;;;;;;5052200;28;20731;-76
2022/05/29 13:32:22;;;;;;;0.97;0.80;;;19.60;66.70;;;;;;5051048;28;20165;-76
2022/05/29 13:34:52;;;;;;;1.00;0.80;;;19.70;61.60;;;;;;5051201;28;20177;-76
2022/05/29 13:37:46;;;;;;;2.30;0.80;;;19.30;65.50;;;;;;5034334;28;20216;-76
2022/05/29 13:40:21;;;;;;;1.10;1.00;;;19.60;60.10;;;;;;5052229;28;20543;-76
2022/05/29 13:42:53;;;;;;;0.70;0.70;;;19.90;56.70;;;;;;5050724;28;20553;-76
2022/05/29 13:45:19;;;;;;;1.30;1.00;;;20.30;66.30;;;;;;5035246;28;20196;-76
2022/05/29 13:48:12;;;;;;;1.77;1.00;;;19.50;76.00;;;;;;5050971;28;20280;-76
2022/05/29 13:50:41;;;;;;;1.33;1.07;;;18.90;82.90;;;;;;5051245;28;20226;-76